createdAt,value
2023-01-19T00:02:02.418Z,59.30
2023-01-19T00:04:34.110Z,58.40
2023-01-19T00:07:05.829Z,62.40
2023-01-19T00:09:38.384Z,57.30
2023-01-19T00:12:10.468Z,65.10
2023-01-19T00:14:42.198Z,59.50
2023-01-19T00:17:13.932Z,57.80
2023-01-19T00:19:45.653Z,58.90
2023-01-19T00:22:17.552Z,57.60
2023-01-19T00:24:50.395Z,54.10
2023-01-19T00:27:22.095Z,61.10
2023-01-19T00:29:53.819Z,60.70
2023-01-19T00:32:25.511Z,56.70
2023-01-19T00:34:57.233Z,59.30
2023-01-19T00:37:28.982Z,71.30
2023-01-19T00:40:00.741Z,58.60
2023-01-19T00:42:41.476Z,68.30
2023-01-19T00:45:15.729Z,65.20
2023-01-19T00:47:47.976Z,61.70
2023-01-19T00:50:19.882Z,62.30
2023-01-19T00:52:53.122Z,63.00
2023-01-19T00:55:24.873Z,73.30
2023-01-19T00:57:57.092Z,61.80
2023-01-19T01:00:29.108Z,64.20
2023-01-19T01:03:01.565Z,73.10
2023-01-19T01:05:33.555Z,60.30
2023-01-19T01:08:05.565Z,64.80
2023-01-19T01:10:37.271Z,67.80
2023-01-19T01:13:23.704Z,63.90
2023-01-19T01:15:58.208Z,66.50
2023-01-19T01:18:30.953Z,61.70
2023-01-19T01:21:07.377Z,64.40
2023-01-19T01:23:39.136Z,65.60
2023-01-19T01:26:10.905Z,55.50
2023-01-19T01:28:42.616Z,62.90
2023-01-19T01:31:14.407Z,63.60
2023-01-19T01:33:46.156Z,56.20
2023-01-19T01:36:18.967Z,58.90
2023-01-19T01:38:50.999Z,64.60
2023-01-19T01:41:25.468Z,56.20
2023-01-19T01:44:01.628Z,60.70
2023-01-19T01:46:34.074Z,57.00
2023-01-19T01:49:09.235Z,58.20
2023-01-19T01:51:47.022Z,66.10
2023-01-19T01:54:22.602Z,60.00
2023-01-19T01:56:58.299Z,63.50
2023-01-19T01:59:34.861Z,59.50
2023-01-19T02:02:26.494Z,57.20
2023-01-19T02:05:04.167Z,58.10
2023-01-19T02:08:03.112Z,61.10
2023-01-19T02:10:52.787Z,56.50
2023-01-19T02:13:25.569Z,68.10
2023-01-19T02:16:00.839Z,56.00
2023-01-19T02:18:33.769Z,59.10
2023-01-19T02:21:12.174Z,56.00
2023-01-19T02:23:47.002Z,65.40
2023-01-19T02:26:23.168Z,64.20
2023-01-19T02:28:59.445Z,56.30
2023-01-19T02:31:33.651Z,61.20
2023-01-19T02:34:07.091Z,64.70
2023-01-19T02:39:12.216Z,64.50
2023-01-19T02:41:49.722Z,63.60
2023-01-19T02:44:23.633Z,65.50
2023-01-19T02:46:57.817Z,60.40
2023-01-19T02:49:31.771Z,58.90
2023-01-19T02:52:04.428Z,63.40
2023-01-19T02:54:47.776Z,60.20
2023-01-19T02:57:43.660Z,63.30
2023-01-19T03:00:26.458Z,62.00
2023-01-19T03:03:15.621Z,61.80
2023-01-19T03:06:04.870Z,60.50
2023-01-19T03:08:49.506Z,56.50
2023-01-19T03:11:24.772Z,58.60
2023-01-19T03:14:01.745Z,57.80
2023-01-19T03:16:40.713Z,60.10
2023-01-19T03:19:19.119Z,62.20
2023-01-19T03:21:56.120Z,56.90
2023-01-19T03:24:30.735Z,56.80
2023-01-19T03:27:06.668Z,56.40
2023-01-19T03:29:42.606Z,56.10
2023-01-19T03:32:18.401Z,57.60
2023-01-19T03:34:52.521Z,59.20
2023-01-19T03:37:26.736Z,57.10
2023-01-19T03:39:58.774Z,46.00
2023-01-19T03:42:31.200Z,52.60
2023-01-19T03:45:03.912Z,47.10
2023-01-19T03:47:36.530Z,46.30
2023-01-19T03:50:14.692Z,55.10
2023-01-19T03:52:46.392Z,53.40
2023-01-19T03:55:18.126Z,50.90
2023-01-19T03:57:49.816Z,49.70
2023-01-19T04:00:22.130Z,58.00
2023-01-19T04:02:53.940Z,46.10
2023-01-19T04:05:26.278Z,49.30
2023-01-19T04:07:58.247Z,54.80
2023-01-19T04:10:29.978Z,53.10
2023-01-19T04:13:02.860Z,52.80
2023-01-19T04:15:35.007Z,61.30
2023-01-19T04:18:07.245Z,52.00
2023-01-19T04:20:39.816Z,53.30
2023-01-19T04:23:11.597Z,53.10
2023-01-19T04:25:43.262Z,50.50
2023-01-19T04:28:15.649Z,47.20
2023-01-19T04:30:50.772Z,54.30
2023-01-19T04:33:23.364Z,52.60
2023-01-19T04:35:56.127Z,53.80
2023-01-19T04:38:28.331Z,54.20
2023-01-19T04:41:00.052Z,47.70
2023-01-19T04:43:31.834Z,52.70
2023-01-19T04:46:03.651Z,52.30
2023-01-19T04:48:35.745Z,58.80
2023-01-19T04:51:08.508Z,57.20
2023-01-19T04:53:40.229Z,54.70
2023-01-19T04:56:12.424Z,50.90
2023-01-19T04:58:44.277Z,50.90
2023-01-19T05:01:16.004Z,59.10
2023-01-19T05:03:47.703Z,56.80
2023-01-19T05:06:19.544Z,54.00
2023-01-19T05:08:51.463Z,58.00
2023-01-19T05:11:23.142Z,53.90
2023-01-19T05:13:54.954Z,56.40
2023-01-19T05:16:26.732Z,50.40
2023-01-19T05:18:58.616Z,54.10
2023-01-19T05:21:30.921Z,54.10
2023-01-19T05:24:02.870Z,49.20
2023-01-19T05:26:34.583Z,56.60
2023-01-19T05:29:06.231Z,56.00
2023-01-19T05:31:38.316Z,53.70
2023-01-19T05:34:12.026Z,52.90
2023-01-19T05:36:43.956Z,57.10
2023-01-19T05:39:15.991Z,63.20
2023-01-19T05:41:47.790Z,58.60
2023-01-19T05:44:19.531Z,65.10
2023-01-19T05:46:51.357Z,64.90
2023-01-19T05:49:23.081Z,66.10
2023-01-19T05:51:54.798Z,64.90
2023-01-19T05:54:26.679Z,76.50
2023-01-19T05:56:58.452Z,65.10
2023-01-19T05:59:30.343Z,63.40
2023-01-19T06:02:02.174Z,107.20
2023-01-19T06:04:34.125Z,79.50
2023-01-19T06:07:06.457Z,151.50
2023-01-19T06:09:38.230Z,126.10
2023-01-19T06:12:10.364Z,118.50
2023-01-19T06:14:42.160Z,65.80
2023-01-19T06:17:13.864Z,61.80
2023-01-19T06:19:45.577Z,71.40
2023-01-19T06:22:17.448Z,86.70
2023-01-19T06:24:49.134Z,65.20
2023-01-19T06:27:20.849Z,64.30
2023-01-19T06:29:52.530Z,57.70
2023-01-19T06:32:24.213Z,60.70
2023-01-19T06:34:55.977Z,64.90
2023-01-19T06:37:28.620Z,65.90
2023-01-19T06:40:00.636Z,66.50
2023-01-19T06:42:32.569Z,74.90
2023-01-19T06:45:04.869Z,133.00
2023-01-19T06:47:36.678Z,82.30
2023-01-19T06:50:10.806Z,104.90
2023-01-19T06:52:42.817Z,74.00
2023-01-19T06:55:16.285Z,68.40
2023-01-19T06:57:48.068Z,70.80
2023-01-19T07:00:21.991Z,67.70
2023-01-19T07:02:53.876Z,72.80
2023-01-19T07:05:25.661Z,72.10
2023-01-19T07:07:58.481Z,66.00
2023-01-19T07:11:25.464Z,82.00
2023-01-19T07:13:21.962Z,83.10
2023-01-19T07:15:53.902Z,81.10
2023-01-19T07:18:25.711Z,69.40
2023-01-19T07:20:59.739Z,75.40
2023-01-19T07:23:31.778Z,93.50
2023-01-19T07:26:03.973Z,111.60
2023-01-19T07:28:36.996Z,90.40
2023-01-19T07:31:09.753Z,83.10
2023-01-19T07:33:41.560Z,77.20
2023-01-19T07:36:14.643Z,72.30
2023-01-19T07:38:46.593Z,72.30
2023-01-19T07:41:18.423Z,75.50
2023-01-19T07:43:52.719Z,73.00
2023-01-19T07:46:24.474Z,73.70
2023-01-19T07:48:56.348Z,70.60
2023-01-19T07:51:28.045Z,70.60
2023-01-19T07:53:59.762Z,83.20
2023-01-19T07:56:33.879Z,84.30
2023-01-19T07:59:07.386Z,85.90
2023-01-19T08:01:39.241Z,81.00
2023-01-19T08:04:11.560Z,77.40
2023-01-19T08:06:46.244Z,71.60
2023-01-19T08:09:18.132Z,63.60
2023-01-19T08:11:49.909Z,61.20
2023-01-19T08:14:21.716Z,62.50
2023-01-19T08:16:53.430Z,55.20
2023-01-19T08:19:25.219Z,48.60
2023-01-19T08:21:58.860Z,53.40
2023-01-19T08:24:31.566Z,64.90
2023-01-19T08:27:04.180Z,53.40
2023-01-19T08:29:35.866Z,53.60
2023-01-19T08:32:08.252Z,64.80
2023-01-19T08:34:40.048Z,53.30
2023-01-19T08:37:11.827Z,62.10
2023-01-19T08:39:43.535Z,43.60
2023-01-19T08:42:15.372Z,43.80
2023-01-19T08:44:57.711Z,50.90
2023-01-19T08:47:30.233Z,41.10
2023-01-19T08:50:02.015Z,49.10
2023-01-19T08:52:33.715Z,50.00
2023-01-19T08:55:06.216Z,49.90
2023-01-19T08:57:37.952Z,47.20
2023-01-19T09:00:11.660Z,45.70
2023-01-19T09:02:43.563Z,55.60
2023-01-19T09:05:15.507Z,65.70
2023-01-19T09:07:48.058Z,49.80
2023-01-19T09:10:20.657Z,66.90
2023-01-19T09:12:52.547Z,63.80
2023-01-19T09:15:24.347Z,51.00
2023-01-19T09:17:56.076Z,48.90
2023-01-19T09:20:28.570Z,48.20
2023-01-19T09:23:00.685Z,60.50
2023-01-19T09:25:32.780Z,58.50
2023-01-19T09:28:05.421Z,62.20
2023-01-19T09:30:37.730Z,52.10
2023-01-19T09:33:11.679Z,52.90
2023-01-19T09:35:45.234Z,58.90
2023-01-19T09:40:52.471Z,43.80
2023-01-19T09:43:42.113Z,48.00
2023-01-19T09:46:18.567Z,61.10
2023-01-19T09:48:53.579Z,61.20
2023-01-19T09:51:27.449Z,52.10
2023-01-19T09:54:07.610Z,52.50
2023-01-19T09:56:39.799Z,60.90
2023-01-19T09:59:23.242Z,51.20
2023-01-19T10:02:21.748Z,64.30
2023-01-19T10:05:01.573Z,62.10
2023-01-19T10:07:53.269Z,51.90
2023-01-19T10:10:28.217Z,49.00
2023-01-19T10:13:15.157Z,53.80
2023-01-19T10:15:57.249Z,46.40
2023-01-19T10:18:35.775Z,38.80
2023-01-19T10:21:13.868Z,48.40
2023-01-19T10:23:49.216Z,41.30
2023-01-19T10:26:24.240Z,39.20
2023-01-19T10:29:00.463Z,46.80
2023-01-19T10:31:33.856Z,39.80
2023-01-19T10:36:40.370Z,37.00
2023-01-19T10:39:16.464Z,45.20
2023-01-19T10:41:52.401Z,42.90
2023-01-19T10:44:28.993Z,36.30
2023-01-19T10:47:02.308Z,38.30
2023-01-19T10:49:42.759Z,42.10
2023-01-19T10:52:26.992Z,33.20
2023-01-19T10:55:00.166Z,41.40
2023-01-19T10:57:36.591Z,32.70
2023-01-19T11:00:29.340Z,33.50
2023-01-19T11:03:01.579Z,31.00
2023-01-19T11:05:35.192Z,40.70
2023-01-19T11:08:25.216Z,38.40
2023-01-19T11:11:02.266Z,32.30
2023-01-19T11:13:34.812Z,41.40
2023-01-19T11:16:16.609Z,41.70
2023-01-19T11:18:52.569Z,42.90
2023-01-19T11:21:27.744Z,35.90
2023-01-19T11:24:01.660Z,44.20
2023-01-19T11:26:40.793Z,37.00
2023-01-19T11:29:20.191Z,43.40
2023-01-19T11:31:53.209Z,33.60
2023-01-19T11:34:34.100Z,41.20
2023-01-19T11:37:22.633Z,33.30
2023-01-19T11:39:57.259Z,39.10
2023-01-19T11:42:33.410Z,38.80
2023-01-19T11:45:15.113Z,32.60
2023-01-19T11:47:49.635Z,41.10
2023-01-19T11:50:29.417Z,44.00
2023-01-19T11:53:07.335Z,42.80
2023-01-19T11:55:44.919Z,45.00
2023-01-19T11:58:18.967Z,34.80
2023-01-19T12:00:54.516Z,38.00
2023-01-19T12:03:31.184Z,36.50
2023-01-19T12:06:05.578Z,33.10
2023-01-19T12:08:40.951Z,40.50
2023-01-19T12:11:21.176Z,39.30
2023-01-19T12:13:54.916Z,43.30
2023-01-19T12:16:30.533Z,37.60
2023-01-19T12:19:06.078Z,37.90
2023-01-19T12:21:38.730Z,41.20
2023-01-19T12:24:17.856Z,43.00
2023-01-19T12:26:55.361Z,40.50
2023-01-19T12:29:31.137Z,50.00
2023-01-19T12:32:20.212Z,42.60
2023-01-19T12:34:52.754Z,43.80
2023-01-19T12:37:36.937Z,45.50
2023-01-19T12:40:25.963Z,42.50
2023-01-19T12:43:02.407Z,32.30
2023-01-19T12:45:35.892Z,39.50
2023-01-19T12:48:24.660Z,31.00
2023-01-19T12:50:56.439Z,42.80
2023-01-19T12:53:30.495Z,42.60
2023-01-19T12:56:08.678Z,46.00
2023-01-19T12:58:40.414Z,40.60
2023-01-19T13:01:21.696Z,39.80
2023-01-19T13:04:06.748Z,50.70
2023-01-19T13:07:10.543Z,40.10
2023-01-19T13:09:43.188Z,37.70
2023-01-19T13:12:26.076Z,46.00
2023-01-19T13:15:34.823Z,35.70
2023-01-19T13:18:09.178Z,37.90
2023-01-19T13:20:50.892Z,42.40
2023-01-19T13:23:26.089Z,43.60
2023-01-19T13:26:04.510Z,45.50
2023-01-19T13:28:41.759Z,44.30
2023-01-19T13:31:15.094Z,40.40
2023-01-19T13:33:53.122Z,34.20
2023-01-19T13:36:31.528Z,39.50
2023-01-19T13:39:05.843Z,56.40
2023-01-19T13:41:41.280Z,64.70
2023-01-19T13:44:19.574Z,43.90
2023-01-19T13:46:52.481Z,60.00
2023-01-19T13:49:30.629Z,47.90
2023-01-19T13:52:13.597Z,67.30
2023-01-19T13:54:53.505Z,41.20
2023-01-19T13:57:28.019Z,31.60
2023-01-19T14:00:17.684Z,31.50
2023-01-19T14:03:01.203Z,30.70
2023-01-19T14:05:35.897Z,42.60
2023-01-19T14:08:17.814Z,32.00
2023-01-19T14:11:02.028Z,33.60
2023-01-19T14:13:37.383Z,59.80
2023-01-19T14:16:18.479Z,45.90
2023-01-19T14:19:02.321Z,40.00
2023-01-19T14:24:17.722Z,30.40
2023-01-19T14:26:52.722Z,34.00
2023-01-19T14:29:31.823Z,32.20
2023-01-19T14:32:19.353Z,94.90
2023-01-19T14:34:53.794Z,115.00
2023-01-19T14:37:28.157Z,47.20
2023-01-19T14:40:05.633Z,45.10
2023-01-19T14:42:39.764Z,39.30
2023-01-19T14:45:22.217Z,69.90
2023-01-19T14:47:59.718Z,37.40
2023-01-19T14:50:35.119Z,53.40
2023-01-19T14:53:15.266Z,33.90
2023-01-19T14:55:49.996Z,36.70
2023-01-19T14:58:23.638Z,39.00
2023-01-19T15:00:56.396Z,35.80
2023-01-19T15:03:43.588Z,36.40
2023-01-19T15:06:19.752Z,38.90
2023-01-19T15:08:53.245Z,34.40
2023-01-19T15:13:57.334Z,30.60
2023-01-19T15:16:32.843Z,40.20
2023-01-19T15:19:05.033Z,42.90
2023-01-19T15:21:37.545Z,78.50
2023-01-19T15:24:09.640Z,62.00
2023-01-19T15:26:43.839Z,67.00
2023-01-19T15:29:24.582Z,58.40
2023-01-19T15:31:56.384Z,48.70
2023-01-19T15:34:28.092Z,47.20
2023-01-19T15:37:00.071Z,35.90
2023-01-19T15:39:32.175Z,36.10
2023-01-19T15:42:04.093Z,42.30
2023-01-19T15:44:35.778Z,38.30
2023-01-19T15:47:07.633Z,50.80
2023-01-19T15:49:39.319Z,39.00
2023-01-19T15:52:10.985Z,37.40
2023-01-19T15:54:42.705Z,37.90
2023-01-19T15:57:14.414Z,36.50
2023-01-19T16:03:42.379Z,29.10
2023-01-19T16:06:16.185Z,32.60
2023-01-19T16:08:48.032Z,30.30
2023-01-19T16:11:19.743Z,30.20
2023-01-19T16:13:51.461Z,36.00
2023-01-19T16:16:25.172Z,33.30
2023-01-19T16:18:57.509Z,37.10
2023-01-19T16:21:29.745Z,40.60
2023-01-19T16:24:01.470Z,32.70
2023-01-19T16:26:34.817Z,34.80
2023-01-19T16:29:09.807Z,34.90
2023-01-19T16:31:43.236Z,33.10
2023-01-19T16:36:45.814Z,35.50
2023-01-19T16:39:18.230Z,38.60
2023-01-19T16:41:49.924Z,35.90
2023-01-19T16:44:21.588Z,38.90
2023-01-19T16:46:53.371Z,42.00
2023-01-19T16:49:28.502Z,44.90
2023-01-19T16:52:00.402Z,40.90
2023-01-19T16:54:32.846Z,54.20
2023-01-19T16:57:04.582Z,47.40
2023-01-19T16:59:36.359Z,51.20
2023-01-19T17:02:08.517Z,51.60
2023-01-19T17:04:40.274Z,56.90
2023-01-19T17:07:11.972Z,69.70
2023-01-19T17:09:43.819Z,62.50
2023-01-19T17:12:15.749Z,66.30
2023-01-19T17:14:48.411Z,74.70
2023-01-19T17:17:20.250Z,68.00
2023-01-19T17:19:51.946Z,70.50
2023-01-19T17:22:23.808Z,81.50
2023-01-19T17:24:55.478Z,120.40
2023-01-19T17:27:27.341Z,80.20
2023-01-19T17:29:59.199Z,70.20
2023-01-19T17:32:32.093Z,87.60
2023-01-19T17:35:03.856Z,62.80
2023-01-19T17:37:35.607Z,66.70
2023-01-19T17:40:09.859Z,70.70
2023-01-19T17:42:43.148Z,69.70
2023-01-19T17:45:15.160Z,61.30
2023-01-19T17:47:48.745Z,67.80
2023-01-19T17:50:20.678Z,71.20
2023-01-19T17:52:52.721Z,63.20
2023-01-19T17:55:24.442Z,60.60
2023-01-19T17:57:56.301Z,58.40
2023-01-19T18:00:28.901Z,57.70
2023-01-19T18:03:00.892Z,63.60
2023-01-19T18:05:32.649Z,62.20
2023-01-19T18:08:04.570Z,59.00
2023-01-19T18:10:36.641Z,54.80
2023-01-19T18:13:08.327Z,56.00
2023-01-19T18:15:40.380Z,51.70
2023-01-19T18:18:12.069Z,50.50
2023-01-19T18:20:44.531Z,48.70
2023-01-19T18:23:16.416Z,46.10
2023-01-19T18:25:48.570Z,50.20
2023-01-19T18:28:20.301Z,46.30
2023-01-19T18:30:52.072Z,49.00
2023-01-19T18:33:24.456Z,59.50
2023-01-19T18:35:56.198Z,46.90
2023-01-19T18:38:28.159Z,52.70
2023-01-19T18:41:07.537Z,50.70
2023-01-19T18:43:39.939Z,48.40
2023-01-19T18:46:12.433Z,52.20
2023-01-19T18:48:44.835Z,46.00
2023-01-19T18:51:17.864Z,44.60
2023-01-19T18:53:49.749Z,47.00
2023-01-19T18:56:21.696Z,47.70
2023-01-19T18:58:53.968Z,42.50
2023-01-19T19:01:30.293Z,49.80
2023-01-19T19:04:04.422Z,45.10
2023-01-19T19:06:36.529Z,43.80
2023-01-19T19:09:08.430Z,47.60
2023-01-19T19:11:40.292Z,60.10
2023-01-19T19:14:12.471Z,46.90
2023-01-19T19:16:44.298Z,45.30
2023-01-19T19:19:16.460Z,46.30
2023-01-19T19:21:48.956Z,44.40
2023-01-19T19:24:20.739Z,48.70
2023-01-19T19:26:52.679Z,40.60
2023-01-19T19:29:24.468Z,38.40
2023-01-19T19:31:56.767Z,43.50
2023-01-19T19:34:29.268Z,44.50
2023-01-19T19:37:01.529Z,44.70
2023-01-19T19:39:33.869Z,39.50
2023-01-19T19:42:05.647Z,45.60
2023-01-19T19:44:37.462Z,39.10
2023-01-19T19:47:09.335Z,35.80
2023-01-19T19:49:41.135Z,41.50
2023-01-19T19:52:12.991Z,38.00
2023-01-19T19:54:45.585Z,38.90
2023-01-19T19:57:17.558Z,42.10
2023-01-19T19:59:49.785Z,36.80
2023-01-19T20:02:22.082Z,37.80
2023-01-19T20:04:54.072Z,42.30
2023-01-19T20:07:26.294Z,40.30
2023-01-19T20:09:58.364Z,41.30
2023-01-19T20:12:30.202Z,37.20
2023-01-19T20:15:02.278Z,33.20
2023-01-19T20:17:34.163Z,36.00
2023-01-19T20:20:07.093Z,38.80
2023-01-19T20:22:38.792Z,44.60
2023-01-19T20:25:11.672Z,51.10
2023-01-19T20:27:44.987Z,63.00
2023-01-19T20:30:17.632Z,78.00
2023-01-19T20:32:51.288Z,70.90
2023-01-19T20:35:23.407Z,58.20
2023-01-19T20:37:55.206Z,51.80
2023-01-19T20:40:27.336Z,44.50
2023-01-19T20:42:59.070Z,44.80
2023-01-19T20:45:31.089Z,46.90
2023-01-19T20:48:02.982Z,47.20
2023-01-19T20:50:34.718Z,43.30
2023-01-19T20:53:06.436Z,46.70
2023-01-19T20:55:38.350Z,45.30
2023-01-19T20:58:10.374Z,44.20
2023-01-19T21:00:42.525Z,44.40
2023-01-19T21:03:14.478Z,40.70
2023-01-19T21:05:49.453Z,45.50
2023-01-19T21:08:21.173Z,48.40
2023-01-19T21:10:56.275Z,48.90
2023-01-19T21:13:28.192Z,55.80
2023-01-19T21:16:00.827Z,54.50
2023-01-19T21:18:32.603Z,53.70
2023-01-19T21:21:04.702Z,50.50
2023-01-19T21:23:36.664Z,53.40
2023-01-19T21:26:08.640Z,49.40
2023-01-19T21:28:40.519Z,48.20
2023-01-19T21:31:14.737Z,56.10
2023-01-19T21:33:46.493Z,46.70
2023-01-19T21:36:18.222Z,56.10
2023-01-19T21:38:51.437Z,77.20
2023-01-19T21:43:53.809Z,55.30
2023-01-19T21:46:29.271Z,60.20
2023-01-19T21:49:02.673Z,62.40
2023-01-19T21:51:37.367Z,55.80
2023-01-19T21:54:09.535Z,55.30
2023-01-19T21:56:43.224Z,57.10
2023-01-19T21:59:18.508Z,55.60
2023-01-19T22:01:51.498Z,52.80
2023-01-19T22:04:23.744Z,50.10
2023-01-19T22:06:55.486Z,51.20
2023-01-19T22:09:27.210Z,48.40
2023-01-19T22:11:59.804Z,47.90
2023-01-19T22:14:32.048Z,58.30
2023-01-19T22:17:04.798Z,55.80
2023-01-19T22:19:36.509Z,79.50
2023-01-19T22:22:08.252Z,74.90
2023-01-19T22:24:40.065Z,72.60
2023-01-19T22:27:11.806Z,64.50
2023-01-19T22:29:43.511Z,58.00
2023-01-19T22:32:15.321Z,54.00
2023-01-19T22:34:48.057Z,56.10
2023-01-19T22:37:19.714Z,56.80
2023-01-19T22:39:51.453Z,57.60
2023-01-19T22:42:23.113Z,54.00
2023-01-19T22:44:54.832Z,48.60
2023-01-19T22:47:26.687Z,63.00
2023-01-19T22:49:58.400Z,56.00
2023-01-19T22:52:30.126Z,58.80
2023-01-19T22:55:02.010Z,68.70
2023-01-19T22:57:36.749Z,60.00
2023-01-19T23:00:11.040Z,53.80
2023-01-19T23:02:42.726Z,60.70
2023-01-19T23:05:14.883Z,48.60
2023-01-19T23:07:46.980Z,56.90
2023-01-19T23:10:19.325Z,60.90
2023-01-19T23:12:51.036Z,54.20
2023-01-19T23:15:22.726Z,55.80
2023-01-19T23:17:54.658Z,79.30
2023-01-19T23:20:26.754Z,54.90
2023-01-19T23:22:58.442Z,50.60
2023-01-19T23:25:31.991Z,55.20
2023-01-19T23:30:33.835Z,44.70
2023-01-19T23:33:05.884Z,52.00
2023-01-19T23:35:38.081Z,47.20
2023-01-19T23:38:09.755Z,46.40
